createdAt,value
2023-05-14T00:01:29.969Z,18.60
2023-05-14T00:03:56.991Z,19.70
2023-05-14T00:06:24.189Z,15.70
2023-05-14T00:08:50.975Z,17.00
2023-05-14T00:11:17.982Z,19.20
2023-05-14T00:13:44.815Z,21.90
2023-05-14T00:16:12.073Z,13.90
2023-05-14T00:18:39.141Z,18.50
2023-05-14T00:21:06.119Z,15.60
2023-05-14T00:23:32.996Z,18.30
2023-05-14T00:25:59.805Z,19.70
2023-05-14T00:28:26.683Z,16.70
2023-05-14T00:30:53.749Z,17.90
2023-05-14T00:33:20.735Z,17.20
2023-05-14T00:35:47.931Z,17.90
2023-05-14T00:38:19.469Z,16.90
2023-05-14T00:40:51.434Z,18.30
2023-05-14T00:43:19.849Z,16.90
2023-05-14T00:45:47.435Z,19.20
2023-05-14T00:48:14.245Z,17.30
2023-05-14T00:50:41.139Z,15.20
2023-05-14T00:53:10.599Z,22.70
2023-05-14T00:55:38.464Z,16.00
2023-05-14T00:58:07.511Z,21.10
2023-05-14T01:00:34.625Z,21.90
2023-05-14T01:03:03.258Z,16.80
2023-05-14T01:05:38.769Z,15.80
2023-05-14T01:08:34.020Z,23.80
2023-05-14T01:11:05.298Z,16.40
2023-05-14T01:13:40.772Z,20.00
2023-05-14T01:16:09.158Z,26.50
2023-05-14T01:18:36.346Z,22.00
2023-05-14T01:21:03.238Z,21.30
2023-05-14T01:23:30.122Z,18.60
2023-05-14T01:25:57.231Z,18.60
2023-05-14T01:28:28.945Z,21.30
2023-05-14T01:31:04.282Z,17.60
2023-05-14T01:33:31.066Z,17.00
2023-05-14T01:35:58.829Z,16.50
2023-05-14T01:38:25.843Z,19.50
2023-05-14T01:40:52.813Z,15.10
2023-05-14T01:43:19.722Z,16.50
2023-05-14T01:45:47.215Z,16.10
2023-05-14T01:48:15.051Z,17.30
2023-05-14T01:50:41.903Z,18.10
2023-05-14T01:53:08.744Z,13.90
2023-05-14T01:55:35.545Z,12.70
2023-05-14T01:58:02.454Z,14.60
2023-05-14T02:00:29.332Z,10.40
2023-05-14T02:02:57.962Z,17.60
2023-05-14T02:05:24.878Z,12.70
2023-05-14T02:07:52.819Z,11.30
2023-05-14T02:10:19.640Z,10.40
2023-05-14T02:12:49.516Z,13.10
2023-05-14T02:15:16.904Z,16.50
2023-05-14T02:17:43.770Z,19.30
2023-05-14T02:20:11.807Z,20.10
2023-05-14T02:22:38.794Z,17.90
2023-05-14T02:25:06.424Z,16.90
2023-05-14T02:27:33.861Z,15.20
2023-05-14T02:30:01.014Z,12.80
2023-05-14T02:32:28.535Z,24.00
2023-05-14T02:34:55.793Z,14.30
2023-05-14T02:37:22.608Z,13.70
2023-05-14T02:39:49.862Z,14.70
2023-05-14T02:42:16.762Z,18.00
2023-05-14T02:44:43.672Z,24.00
2023-05-14T02:47:11.210Z,21.70
2023-05-14T02:49:38.251Z,15.40
2023-05-14T02:52:05.683Z,16.70
2023-05-14T02:54:32.556Z,17.40
2023-05-14T02:56:59.367Z,20.20
2023-05-14T02:59:27.182Z,13.10
2023-05-14T03:01:54.834Z,14.20
2023-05-14T03:04:22.026Z,19.90
2023-05-14T03:06:48.814Z,19.50
2023-05-14T03:09:15.622Z,12.40
2023-05-14T03:11:42.522Z,13.50
2023-05-14T03:14:09.420Z,13.70
2023-05-14T03:16:36.379Z,12.30
2023-05-14T03:19:04.123Z,13.60
2023-05-14T03:21:32.084Z,15.60
2023-05-14T03:23:58.955Z,15.20
2023-05-14T03:26:25.769Z,18.10
2023-05-14T03:28:53.091Z,16.30
2023-05-14T03:31:19.943Z,19.10
2023-05-14T03:33:47.182Z,19.30
2023-05-14T03:36:13.978Z,14.30
2023-05-14T03:38:41.215Z,16.50
2023-05-14T03:41:08.903Z,17.30
2023-05-14T03:43:36.540Z,17.70
2023-05-14T03:46:03.347Z,13.50
2023-05-14T03:48:30.196Z,14.50
2023-05-14T03:50:57.225Z,15.70
2023-05-14T03:53:24.143Z,20.20
2023-05-14T03:55:51.138Z,13.60
2023-05-14T03:58:17.965Z,19.30
2023-05-14T04:00:44.737Z,15.40
2023-05-14T04:03:12.080Z,16.90
2023-05-14T04:05:39.043Z,17.70
2023-05-14T04:08:06.658Z,16.60
2023-05-14T04:10:33.506Z,16.50
2023-05-14T04:13:00.718Z,17.70
2023-05-14T04:15:31.818Z,16.80
2023-05-14T04:17:58.847Z,13.30
2023-05-14T04:20:25.896Z,14.90
2023-05-14T04:22:54.131Z,14.80
2023-05-14T04:25:21.019Z,14.80
2023-05-14T04:27:47.834Z,16.50
2023-05-14T04:30:14.931Z,13.30
2023-05-14T04:32:41.891Z,13.20
2023-05-14T04:35:10.399Z,12.70
2023-05-14T04:37:37.278Z,14.30
2023-05-14T04:40:05.926Z,13.80
2023-05-14T04:42:32.738Z,15.20
2023-05-14T04:44:59.526Z,18.50
2023-05-14T04:47:26.771Z,16.70
2023-05-14T04:49:53.936Z,13.80
2023-05-14T04:52:21.025Z,17.80
2023-05-14T04:54:47.914Z,12.50
2023-05-14T04:57:14.834Z,16.10
2023-05-14T04:59:41.628Z,13.70
2023-05-14T05:02:08.536Z,11.80
2023-05-14T05:04:35.429Z,12.30
2023-05-14T05:07:02.346Z,9.60
2023-05-14T05:09:30.348Z,12.00
2023-05-14T05:11:57.168Z,12.50
2023-05-14T05:14:23.962Z,10.50
2023-05-14T05:16:51.502Z,10.50
2023-05-14T05:19:19.710Z,11.30
2023-05-14T05:21:49.184Z,12.70
2023-05-14T05:24:16.013Z,13.30
2023-05-14T05:26:42.888Z,10.60
2023-05-14T05:29:09.677Z,7.70
2023-05-14T05:31:36.967Z,9.70
2023-05-14T05:34:03.896Z,9.00
2023-05-14T05:36:31.833Z,7.60
2023-05-14T05:38:58.616Z,9.00
2023-05-14T05:41:26.768Z,9.90
2023-05-14T05:43:53.539Z,7.50
2023-05-14T05:46:20.483Z,9.00
2023-05-14T05:48:47.367Z,6.20
2023-05-14T05:51:14.176Z,6.70
2023-05-14T05:53:40.972Z,5.70
2023-05-14T05:56:07.836Z,4.50
2023-05-14T05:58:35.188Z,5.70
2023-05-14T06:01:02.621Z,5.40
2023-05-14T06:03:29.499Z,7.80
2023-05-14T06:05:56.359Z,7.60
2023-05-14T06:08:23.269Z,6.20
2023-05-14T06:10:50.180Z,8.10
2023-05-14T06:13:17.229Z,7.40
2023-05-14T06:15:44.182Z,4.70
2023-05-14T06:18:10.974Z,5.30
2023-05-14T06:20:37.809Z,5.70
2023-05-14T06:23:04.694Z,4.70
2023-05-14T06:25:31.591Z,4.50
2023-05-14T06:27:58.455Z,7.30
2023-05-14T06:30:25.552Z,4.20
2023-05-14T06:32:52.796Z,4.80
2023-05-14T06:35:19.994Z,6.50
2023-05-14T06:37:46.887Z,5.30
2023-05-14T06:40:15.847Z,7.40
2023-05-14T06:42:42.703Z,5.10
2023-05-14T06:45:10.263Z,4.40
2023-05-14T06:47:37.211Z,4.60
2023-05-14T06:50:04.655Z,4.90
2023-05-14T06:52:31.469Z,5.40
2023-05-14T06:54:58.287Z,4.70
2023-05-14T06:57:25.092Z,4.80
2023-05-14T06:59:52.300Z,5.00
2023-05-14T07:02:19.065Z,4.70
2023-05-14T07:04:46.663Z,8.70
2023-05-14T07:07:15.633Z,7.00
2023-05-14T07:09:42.901Z,4.80
2023-05-14T07:12:09.774Z,4.90
2023-05-14T07:14:36.564Z,4.20
2023-05-14T07:17:03.610Z,4.80
2023-05-14T07:19:30.788Z,5.40
2023-05-14T07:21:58.248Z,5.00
2023-05-14T07:24:25.115Z,4.50
2023-05-14T07:26:52.260Z,3.50
2023-05-14T07:29:19.395Z,4.40
2023-05-14T07:31:46.619Z,4.70
2023-05-14T07:34:13.665Z,3.60
2023-05-14T07:36:41.225Z,4.10
2023-05-14T07:39:08.710Z,4.90
2023-05-14T07:41:35.530Z,4.40
2023-05-14T07:44:02.637Z,4.00
2023-05-14T07:46:29.435Z,4.40
2023-05-14T07:48:56.266Z,5.40
2023-05-14T07:51:23.134Z,3.30
2023-05-14T07:53:49.935Z,4.30
2023-05-14T07:56:16.731Z,3.50
2023-05-14T07:58:43.942Z,2.90
2023-05-14T08:01:10.724Z,5.40
2023-05-14T08:03:37.750Z,7.00
2023-05-14T08:06:04.734Z,5.10
2023-05-14T08:08:31.796Z,3.50
2023-05-14T08:10:58.667Z,3.90
2023-05-14T08:13:25.563Z,16.00
2023-05-14T08:15:52.764Z,2.80
2023-05-14T08:18:19.540Z,3.90
2023-05-14T08:20:47.167Z,2.70
2023-05-14T08:23:14.071Z,4.20
2023-05-14T08:25:40.892Z,3.40
2023-05-14T08:28:07.858Z,2.90
2023-05-14T08:30:34.814Z,7.30
2023-05-14T08:33:01.741Z,9.30
2023-05-14T08:35:28.689Z,4.70
2023-05-14T08:37:57.017Z,9.20
2023-05-14T08:40:24.080Z,2.80
2023-05-14T08:42:51.614Z,5.20
2023-05-14T08:45:19.979Z,4.40
2023-05-14T08:47:50.582Z,4.80
2023-05-14T08:50:18.394Z,4.10
2023-05-14T08:52:46.215Z,4.40
2023-05-14T08:55:13.390Z,3.70
2023-05-14T08:57:40.332Z,3.80
2023-05-14T09:00:16.615Z,3.40
2023-05-14T09:02:43.542Z,6.20
2023-05-14T09:05:10.721Z,5.90
2023-05-14T09:07:37.751Z,6.60
2023-05-14T09:10:05.419Z,4.60
2023-05-14T09:12:32.291Z,4.40
2023-05-14T09:14:59.114Z,5.70
2023-05-14T09:17:27.625Z,4.90
2023-05-14T09:19:54.648Z,8.30
2023-05-14T09:22:21.669Z,5.50
2023-05-14T09:25:05.236Z,5.90
2023-05-14T09:27:33.021Z,7.20
2023-05-14T09:30:13.623Z,2.90
2023-05-14T09:32:44.234Z,2.50
2023-05-14T09:35:20.673Z,5.90
2023-05-14T09:37:49.308Z,2.10
2023-05-14T09:40:17.503Z,2.60
2023-05-14T09:42:44.351Z,5.70
2023-05-14T09:45:11.336Z,4.90
2023-05-14T09:47:39.042Z,5.30
2023-05-14T09:50:07.037Z,2.60
2023-05-14T09:52:33.969Z,4.50
2023-05-14T09:55:01.121Z,9.00
2023-05-14T09:57:28.384Z,3.90
2023-05-14T09:59:55.280Z,4.10
2023-05-14T10:02:37.719Z,5.10
2023-05-14T10:05:06.485Z,7.10
2023-05-14T10:07:41.782Z,6.10
2023-05-14T10:10:11.814Z,4.10
2023-05-14T10:12:40.088Z,3.50
2023-05-14T10:15:16.452Z,3.10
2023-05-14T10:17:45.984Z,2.60
2023-05-14T10:20:13.816Z,4.40
2023-05-14T10:22:40.758Z,2.60
2023-05-14T10:25:08.589Z,3.00
2023-05-14T10:27:35.575Z,4.10
2023-05-14T10:30:02.776Z,3.50
2023-05-14T10:32:33.127Z,5.70
2023-05-14T10:34:59.964Z,5.10
2023-05-14T10:38:59.224Z,4.40
2023-05-14T10:41:26.131Z,3.20
2023-05-14T10:43:53.024Z,2.20
2023-05-14T10:46:19.893Z,2.60
2023-05-14T10:48:46.857Z,2.20
2023-05-14T10:51:14.097Z,4.60
2023-05-14T10:53:42.974Z,4.20
2023-05-14T10:56:11.354Z,8.40
2023-05-14T10:58:47.789Z,4.80
2023-05-14T11:01:14.671Z,2.40
2023-05-14T11:03:45.967Z,8.90
2023-05-14T11:06:15.090Z,5.70
2023-05-14T11:08:41.990Z,4.00
2023-05-14T11:11:08.980Z,13.20
2023-05-14T11:13:36.147Z,6.30
2023-05-14T11:16:15.057Z,3.40
2023-05-14T11:18:49.424Z,5.00
2023-05-14T11:21:17.538Z,4.20
2023-05-14T11:23:46.777Z,4.90
2023-05-14T11:26:13.659Z,5.30
2023-05-14T11:28:40.685Z,9.90
2023-05-14T11:31:07.599Z,5.20
2023-05-14T11:33:34.472Z,5.20
2023-05-14T11:36:01.376Z,3.00
2023-05-14T11:38:28.179Z,4.90
2023-05-14T11:40:55.808Z,3.70
2023-05-14T11:43:23.892Z,4.20
2023-05-14T11:45:52.528Z,12.00
2023-05-14T11:48:23.281Z,2.30
2023-05-14T11:50:51.609Z,4.90
2023-05-14T11:53:20.172Z,2.50
2023-05-14T11:55:47.505Z,3.20
2023-05-14T11:58:14.365Z,5.10
2023-05-14T12:00:41.590Z,3.30
2023-05-14T12:03:10.216Z,5.70
2023-05-14T12:05:40.514Z,8.80
2023-05-14T12:08:21.554Z,2.50
2023-05-14T12:10:48.623Z,4.20
2023-05-14T12:13:17.620Z,7.30
2023-05-14T12:15:47.148Z,9.90
2023-05-14T12:18:24.045Z,3.40
2023-05-14T12:20:52.268Z,4.80
2023-05-14T12:23:29.805Z,3.20
2023-05-14T12:26:02.489Z,6.20
2023-05-14T12:28:29.406Z,2.80
2023-05-14T12:30:57.522Z,4.00
2023-05-14T12:33:26.662Z,5.70
2023-05-14T12:35:54.276Z,8.60
2023-05-14T12:38:21.077Z,10.10
2023-05-14T12:40:47.954Z,2.90
2023-05-14T12:43:15.081Z,4.40
2023-05-14T12:45:41.869Z,3.20
2023-05-14T12:48:08.739Z,4.50
2023-05-14T12:50:35.691Z,4.00
2023-05-14T12:53:02.603Z,3.30
2023-05-14T12:55:29.498Z,2.50
2023-05-14T12:57:56.372Z,4.20
2023-05-14T13:00:23.401Z,6.20
2023-05-14T13:02:50.493Z,3.20
2023-05-14T13:05:17.325Z,5.10
2023-05-14T13:07:44.110Z,4.40
2023-05-14T13:10:11.984Z,3.70
2023-05-14T13:12:39.102Z,2.50
2023-05-14T13:15:06.837Z,7.60
2023-05-14T13:17:33.742Z,2.30
2023-05-14T13:20:00.933Z,2.30
2023-05-14T13:22:27.891Z,2.30
2023-05-14T13:24:54.672Z,4.00
2023-05-14T13:27:21.667Z,2.80
2023-05-14T13:29:48.547Z,3.90
2023-05-14T13:32:15.476Z,4.90
2023-05-14T13:34:44.026Z,3.30
2023-05-14T13:37:11.309Z,6.30
2023-05-14T13:39:39.365Z,6.40
2023-05-14T13:42:08.193Z,3.50
2023-05-14T13:44:36.262Z,3.60
2023-05-14T13:47:03.225Z,11.80
2023-05-14T13:49:30.120Z,7.70
2023-05-14T13:51:57.002Z,5.30
2023-05-14T13:54:23.816Z,7.60
2023-05-14T13:56:51.162Z,6.00
2023-05-14T13:59:18.470Z,3.30
2023-05-14T14:01:45.473Z,8.70
2023-05-14T14:04:12.534Z,5.20
2023-05-14T14:06:39.271Z,4.30
2023-05-14T14:09:06.051Z,9.90
2023-05-14T14:11:32.862Z,4.80
2023-05-14T14:13:59.641Z,4.80
2023-05-14T14:16:26.574Z,7.60
2023-05-14T14:18:53.561Z,4.70
2023-05-14T14:21:21.195Z,2.70
2023-05-14T14:23:48.465Z,7.50
2023-05-14T14:26:15.997Z,5.00
2023-05-14T14:28:43.096Z,7.00
2023-05-14T14:31:11.134Z,3.70
2023-05-14T14:33:38.043Z,5.50
2023-05-14T14:36:06.020Z,3.30
2023-05-14T14:38:32.826Z,5.80
2023-05-14T14:40:59.634Z,4.50
2023-05-14T14:43:26.451Z,6.60
2023-05-14T14:45:53.264Z,5.50
2023-05-14T14:48:28.140Z,6.50
2023-05-14T14:50:55.162Z,9.30
2023-05-14T14:53:22.260Z,3.60
2023-05-14T14:55:49.873Z,6.60
2023-05-14T14:58:18.438Z,4.00
2023-05-14T15:00:45.872Z,7.50
2023-05-14T15:03:12.991Z,9.50
2023-05-14T15:05:40.055Z,10.10
2023-05-14T15:08:06.908Z,12.10
2023-05-14T15:10:38.014Z,8.90
2023-05-14T15:13:06.084Z,6.60
2023-05-14T15:15:36.113Z,9.90
2023-05-14T15:18:03.871Z,10.90
2023-05-14T15:20:30.827Z,7.70
2023-05-14T15:22:57.721Z,10.00
2023-05-14T15:25:25.144Z,11.80
2023-05-14T15:27:52.335Z,4.80
2023-05-14T15:30:19.240Z,5.80
2023-05-14T15:32:46.856Z,8.10
2023-05-14T15:35:14.104Z,5.40
2023-05-14T15:37:42.727Z,6.90
2023-05-14T15:40:10.689Z,4.00
2023-05-14T15:42:38.665Z,4.00
2023-05-14T15:45:06.185Z,3.30
2023-05-14T15:47:33.593Z,5.00
2023-05-14T15:50:00.809Z,5.30
2023-05-14T15:52:27.616Z,5.20
2023-05-14T15:54:56.293Z,5.10
2023-05-14T15:57:23.777Z,4.30
2023-05-14T15:59:51.538Z,5.30
2023-05-14T16:02:18.692Z,8.40
2023-05-14T16:04:45.545Z,6.20
2023-05-14T16:07:13.307Z,6.10
2023-05-14T16:09:40.234Z,5.60
2023-05-14T16:12:07.846Z,6.40
2023-05-14T16:14:35.239Z,7.70
2023-05-14T16:17:02.253Z,10.20
2023-05-14T16:19:29.162Z,7.10
2023-05-14T16:21:56.081Z,4.40
2023-05-14T16:24:22.862Z,12.50
2023-05-14T16:26:49.653Z,12.70
2023-05-14T16:29:16.486Z,18.30
2023-05-14T16:31:43.588Z,19.30
2023-05-14T16:34:10.479Z,15.90
2023-05-14T16:36:37.644Z,9.80
2023-05-14T16:39:07.757Z,14.50
2023-05-14T16:41:38.380Z,19.10
2023-05-14T16:44:05.229Z,16.70
2023-05-14T16:46:32.437Z,19.20
2023-05-14T16:48:59.549Z,19.90
2023-05-14T16:51:26.355Z,25.50
2023-05-14T16:53:55.405Z,29.00
2023-05-14T16:56:23.650Z,33.20
2023-05-14T16:58:50.540Z,36.90
2023-05-14T17:01:17.428Z,32.30
2023-05-14T17:03:45.697Z,26.80
2023-05-14T17:06:12.492Z,24.20
2023-05-14T17:08:39.412Z,25.10
2023-05-14T17:11:06.274Z,28.10
2023-05-14T17:13:33.591Z,17.20
2023-05-14T17:16:01.109Z,21.40
2023-05-14T17:18:28.587Z,19.80
2023-05-14T17:20:55.912Z,20.60
2023-05-14T17:23:22.763Z,23.20
2023-05-14T17:25:49.864Z,15.50
2023-05-14T17:28:16.726Z,17.40
2023-05-14T17:30:43.956Z,10.30
2023-05-14T17:33:11.695Z,14.60
2023-05-14T17:35:38.780Z,10.10
2023-05-14T17:38:05.815Z,7.70
2023-05-14T17:40:33.796Z,14.40
2023-05-14T17:43:00.892Z,17.00
2023-05-14T17:45:28.550Z,14.20
2023-05-14T17:47:57.669Z,14.00
2023-05-14T17:50:24.602Z,15.10
2023-05-14T17:52:51.617Z,19.10
2023-05-14T17:55:19.358Z,20.20
2023-05-14T17:57:46.535Z,20.40
2023-05-14T18:00:14.000Z,15.40
2023-05-14T18:02:41.844Z,11.90
2023-05-14T18:05:09.170Z,20.30
2023-05-14T18:07:36.835Z,19.00
2023-05-14T18:10:04.301Z,12.00
2023-05-14T18:12:31.129Z,11.50
2023-05-14T18:14:58.032Z,16.30
2023-05-14T18:17:24.833Z,10.10
2023-05-14T18:19:51.837Z,9.40
2023-05-14T18:22:20.396Z,20.20
2023-05-14T18:24:47.483Z,16.20
2023-05-14T18:27:14.373Z,18.00
2023-05-14T18:29:42.835Z,17.80
2023-05-14T18:32:09.815Z,15.10
2023-05-14T18:34:36.642Z,15.10
2023-05-14T18:37:03.621Z,18.50
2023-05-14T18:39:30.472Z,29.00
2023-05-14T18:41:57.533Z,22.80
2023-05-14T18:44:24.435Z,20.30
2023-05-14T18:46:51.322Z,17.10
2023-05-14T18:49:18.219Z,20.00
2023-05-14T18:51:45.020Z,12.80
2023-05-14T18:54:11.910Z,23.40
2023-05-14T18:56:41.397Z,18.10
2023-05-14T18:59:09.421Z,21.80
2023-05-14T19:01:36.533Z,19.90
2023-05-14T19:04:05.397Z,17.20
2023-05-14T19:06:32.929Z,17.60
2023-05-14T19:09:00.127Z,17.00
2023-05-14T19:11:27.002Z,22.50
2023-05-14T19:13:53.788Z,22.60
2023-05-14T19:16:21.406Z,19.50
2023-05-14T19:18:48.424Z,20.00
2023-05-14T19:21:15.422Z,20.80
2023-05-14T19:23:42.210Z,19.40
2023-05-14T19:26:09.112Z,24.60
2023-05-14T19:28:37.985Z,27.30
2023-05-14T19:31:05.641Z,21.60
2023-05-14T19:33:32.585Z,29.50
2023-05-14T19:35:59.417Z,28.90
2023-05-14T19:38:26.403Z,25.40
2023-05-14T19:40:56.929Z,24.60
2023-05-14T19:43:25.592Z,32.00
2023-05-14T19:45:52.474Z,37.90
2023-05-14T19:48:19.763Z,29.30
2023-05-14T19:50:47.358Z,35.10
2023-05-14T19:53:14.567Z,31.00
2023-05-14T19:55:41.993Z,31.90
2023-05-14T19:58:09.073Z,27.40
2023-05-14T20:00:37.207Z,29.60
2023-05-14T20:03:06.104Z,36.50
2023-05-14T20:05:34.511Z,35.80
2023-05-14T20:08:01.741Z,23.30
2023-05-14T20:10:28.717Z,28.10
2023-05-14T20:12:55.641Z,25.50
2023-05-14T20:15:22.479Z,20.60
2023-05-14T20:17:49.391Z,24.30
2023-05-14T20:20:16.801Z,24.70
2023-05-14T20:22:44.164Z,27.80
2023-05-14T20:25:11.052Z,23.60
2023-05-14T20:27:37.888Z,27.10
2023-05-14T20:30:08.267Z,25.20
2023-05-14T20:32:35.304Z,37.80
2023-05-14T20:35:02.445Z,39.10
2023-05-14T20:37:33.359Z,36.50
2023-05-14T20:40:00.663Z,35.00
2023-05-14T20:42:27.789Z,22.90
2023-05-14T20:44:54.877Z,27.80
2023-05-14T20:47:24.405Z,22.60
2023-05-14T20:49:51.346Z,30.50
2023-05-14T20:52:18.975Z,29.90
2023-05-14T20:54:46.184Z,30.90
2023-05-14T20:57:16.069Z,16.20
2023-05-14T20:59:42.891Z,22.90
2023-05-14T21:02:09.910Z,23.80
2023-05-14T21:04:37.024Z,18.90
2023-05-14T21:07:04.271Z,17.10
2023-05-14T21:09:31.184Z,18.90
2023-05-14T21:11:57.973Z,19.60
2023-05-14T21:14:25.110Z,21.20
2023-05-14T21:16:52.001Z,20.00
2023-05-14T21:19:18.886Z,26.30
2023-05-14T21:21:47.496Z,28.10
2023-05-14T21:24:16.855Z,21.30
2023-05-14T21:26:43.722Z,19.20
2023-05-14T21:29:11.215Z,19.30
2023-05-14T21:31:38.096Z,24.50
2023-05-14T21:34:05.059Z,24.20
2023-05-14T21:36:31.956Z,20.90
2023-05-14T21:38:58.744Z,24.20
2023-05-14T21:41:25.819Z,23.60
2023-05-14T21:43:52.742Z,27.10
2023-05-14T21:46:19.532Z,27.40
2023-05-14T21:48:46.468Z,20.70
2023-05-14T21:51:13.420Z,23.70
2023-05-14T21:53:40.223Z,24.80
2023-05-14T21:56:08.300Z,19.80
2023-05-14T21:58:35.976Z,16.10
2023-05-14T22:01:02.849Z,23.80
2023-05-14T22:03:29.792Z,25.80
2023-05-14T22:05:57.422Z,20.50
2023-05-14T22:08:24.304Z,17.10
2023-05-14T22:10:51.300Z,20.60
2023-05-14T22:13:18.183Z,18.60
2023-05-14T22:15:45.075Z,16.20
2023-05-14T22:18:12.998Z,16.30
2023-05-14T22:20:40.243Z,17.70
2023-05-14T22:23:07.252Z,17.80
2023-05-14T22:25:34.110Z,17.70
2023-05-14T22:28:00.941Z,24.40
2023-05-14T22:30:27.822Z,15.90
2023-05-14T22:32:54.686Z,19.30
2023-05-14T22:35:21.629Z,29.80
2023-05-14T22:37:48.523Z,16.40
2023-05-14T22:40:15.351Z,20.40
2023-05-14T22:42:42.155Z,17.80
2023-05-14T22:45:09.880Z,14.60
2023-05-14T22:47:37.966Z,14.20
2023-05-14T22:50:11.293Z,12.20
2023-05-14T22:52:39.434Z,14.20
2023-05-14T22:56:52.837Z,15.40
2023-05-14T22:59:21.015Z,17.00
2023-05-14T23:01:49.920Z,12.80
2023-05-14T23:04:16.828Z,13.10
2023-05-14T23:06:43.625Z,18.30
2023-05-14T23:09:10.417Z,19.00
2023-05-14T23:11:37.314Z,15.00
2023-05-14T23:14:04.153Z,13.90
2023-05-14T23:16:32.036Z,15.80
2023-05-14T23:18:58.951Z,14.60
2023-05-14T23:21:26.053Z,24.20
2023-05-14T23:23:52.992Z,20.20
2023-05-14T23:26:19.928Z,27.20
2023-05-14T23:28:47.583Z,19.80
2023-05-14T23:31:14.395Z,23.40
2023-05-14T23:33:41.250Z,18.50
2023-05-14T23:36:08.692Z,17.30
2023-05-14T23:38:35.568Z,16.80
2023-05-14T23:41:02.381Z,20.10
2023-05-14T23:43:29.260Z,16.80
2023-05-14T23:45:56.141Z,17.60
2023-05-14T23:48:23.056Z,17.10
2023-05-14T23:50:49.962Z,17.70
2023-05-14T23:53:17.767Z,21.40
2023-05-14T23:55:44.704Z,17.50
2023-05-14T23:58:11.796Z,19.20
